createdAt,value
2023-04-15T00:01:01.280Z,5.13
2023-04-15T00:03:28.796Z,5.32
2023-04-15T00:05:56.309Z,5.65
2023-04-15T00:08:23.693Z,5.70
2023-04-15T00:10:50.936Z,5.45
2023-04-15T00:13:17.753Z,4.78
2023-04-15T00:15:44.769Z,4.63
2023-04-15T00:18:11.602Z,5.25
2023-04-15T00:20:38.466Z,5.90
2023-04-15T00:23:05.649Z,5.10
2023-04-15T00:25:33.020Z,4.85
2023-04-15T00:28:00.245Z,4.72
2023-04-15T00:30:27.122Z,5.45
2023-04-15T00:32:53.973Z,5.72
2023-04-15T00:35:21.699Z,5.10
2023-04-15T00:37:48.485Z,4.93
2023-04-15T00:40:18.971Z,4.68
2023-04-15T00:42:45.890Z,4.90
2023-04-15T00:45:13.121Z,5.13
2023-04-15T00:47:42.334Z,5.00
2023-04-15T00:50:10.267Z,5.97
2023-04-15T00:52:37.736Z,5.15
2023-04-15T00:55:05.690Z,5.72
2023-04-15T00:57:33.248Z,5.63
2023-04-15T01:00:01.132Z,5.57
2023-04-15T01:02:28.201Z,5.68
2023-04-15T01:04:56.795Z,6.25
2023-04-15T01:07:23.664Z,6.63
2023-04-15T01:09:50.661Z,5.55
2023-04-15T01:12:17.927Z,5.68
2023-04-15T01:14:44.832Z,6.45
2023-04-15T01:17:12.505Z,6.68
2023-04-15T01:19:39.815Z,6.43
2023-04-15T01:22:06.691Z,6.80
2023-04-15T01:24:34.264Z,7.05
2023-04-15T01:27:01.238Z,7.22
2023-04-15T01:29:28.664Z,7.05
2023-04-15T01:31:56.922Z,6.68
2023-04-15T01:34:23.954Z,6.97
2023-04-15T01:36:51.232Z,6.20
2023-04-15T01:39:18.147Z,6.57
2023-04-15T01:41:45.039Z,6.22
2023-04-15T01:44:11.876Z,7.03
2023-04-15T01:46:38.776Z,7.18
2023-04-15T01:49:06.237Z,6.85
2023-04-15T01:51:33.048Z,6.57
2023-04-15T01:53:59.880Z,7.32
2023-04-15T01:56:26.899Z,7.90
2023-04-15T01:58:53.796Z,7.28
2023-04-15T02:01:20.960Z,7.07
2023-04-15T02:03:48.286Z,7.70
2023-04-15T02:06:15.317Z,7.53
2023-04-15T02:08:42.194Z,7.03
2023-04-15T02:11:09.319Z,7.10
2023-04-15T02:13:36.961Z,7.53
2023-04-15T02:16:04.084Z,8.05
2023-04-15T02:18:31.062Z,6.90
2023-04-15T02:20:58.774Z,7.90
2023-04-15T02:23:25.964Z,7.57
2023-04-15T02:25:54.285Z,7.10
2023-04-15T02:28:22.017Z,7.22
2023-04-15T02:30:53.575Z,6.75
2023-04-15T02:33:21.840Z,7.63
2023-04-15T02:35:48.700Z,6.43
2023-04-15T02:38:17.869Z,7.57
2023-04-15T02:40:44.708Z,6.90
2023-04-15T02:43:11.567Z,7.57
2023-04-15T02:45:38.419Z,7.43
2023-04-15T02:48:06.731Z,7.35
2023-04-15T02:50:33.718Z,7.55
2023-04-15T02:53:01.781Z,6.82
2023-04-15T02:55:29.306Z,7.85
2023-04-15T02:57:57.258Z,6.80
2023-04-15T03:00:25.504Z,6.78
2023-04-15T03:02:57.591Z,7.50
2023-04-15T03:05:27.643Z,7.60
2023-04-15T03:07:54.488Z,8.20
2023-04-15T03:10:22.189Z,7.97
2023-04-15T03:12:49.356Z,8.25
2023-04-15T03:15:16.781Z,8.38
2023-04-15T03:17:43.700Z,6.95
2023-04-15T03:20:11.234Z,8.00
2023-04-15T03:22:38.187Z,7.82
2023-04-15T03:25:05.490Z,9.00
2023-04-15T03:27:32.471Z,7.90
2023-04-15T03:29:59.270Z,8.50
2023-04-15T03:32:27.219Z,8.90
2023-04-15T03:34:54.111Z,7.97
2023-04-15T03:37:21.044Z,9.13
2023-04-15T03:39:47.948Z,8.52
2023-04-15T03:42:14.781Z,9.27
2023-04-15T03:44:41.538Z,9.50
2023-04-15T03:47:08.600Z,10.10
2023-04-15T03:49:37.009Z,9.30
2023-04-15T03:52:03.986Z,9.38
2023-04-15T03:54:30.974Z,9.40
2023-04-15T03:56:57.816Z,9.63
2023-04-15T03:59:24.702Z,9.80
2023-04-15T04:01:52.068Z,10.15
2023-04-15T04:04:19.005Z,9.90
2023-04-15T04:06:45.843Z,10.00
2023-04-15T04:09:12.646Z,9.98
2023-04-15T04:11:39.600Z,9.98
2023-04-15T04:14:06.551Z,10.40
2023-04-15T04:16:33.431Z,9.93
2023-04-15T04:19:00.760Z,10.88
2023-04-15T04:21:28.212Z,9.57
2023-04-15T04:23:56.703Z,10.60
2023-04-15T04:26:23.492Z,11.30
2023-04-15T04:28:50.756Z,9.80
2023-04-15T04:31:17.637Z,10.95
2023-04-15T04:33:44.542Z,10.57
2023-04-15T04:36:11.609Z,10.82
2023-04-15T04:38:38.389Z,12.07
2023-04-15T04:41:05.456Z,11.70
2023-04-15T04:43:32.230Z,13.60
2023-04-15T04:45:59.181Z,12.77
2023-04-15T04:48:26.335Z,12.25
2023-04-15T04:50:53.508Z,13.45
2023-04-15T04:53:20.504Z,11.75
2023-04-15T04:55:47.313Z,12.02
2023-04-15T04:58:14.173Z,13.80
2023-04-15T05:00:42.100Z,13.13
2023-04-15T05:03:09.699Z,12.65
2023-04-15T05:05:39.449Z,12.93
2023-04-15T05:08:06.517Z,13.48
2023-04-15T05:10:33.434Z,13.35
2023-04-15T05:13:00.383Z,12.88
2023-04-15T05:15:27.166Z,13.35
2023-04-15T05:17:53.966Z,12.75
2023-04-15T05:20:20.949Z,12.45
2023-04-15T05:22:47.796Z,12.43
2023-04-15T05:25:14.701Z,13.52
2023-04-15T05:27:42.138Z,12.40
2023-04-15T05:30:10.621Z,12.63
2023-04-15T05:32:38.410Z,12.80
2023-04-15T05:35:05.689Z,13.02
2023-04-15T05:37:32.663Z,13.57
2023-04-15T05:39:59.472Z,13.50
2023-04-15T05:42:26.322Z,13.43
2023-04-15T05:44:53.129Z,13.35
2023-04-15T05:47:19.971Z,13.65
2023-04-15T05:49:46.945Z,13.95
2023-04-15T05:52:13.743Z,14.18
2023-04-15T05:54:40.617Z,14.57
2023-04-15T05:57:07.882Z,14.73
2023-04-15T05:59:34.753Z,15.13
2023-04-15T06:02:01.967Z,15.27
2023-04-15T06:04:28.994Z,14.57
2023-04-15T06:06:56.214Z,14.98
2023-04-15T06:09:23.042Z,14.80
2023-04-15T06:11:49.977Z,14.43
2023-04-15T06:14:16.922Z,15.98
2023-04-15T06:16:44.086Z,15.07
2023-04-15T06:19:10.955Z,16.10
2023-04-15T06:21:38.248Z,16.15
2023-04-15T06:24:05.495Z,15.52
2023-04-15T06:26:32.335Z,14.73
2023-04-15T06:28:59.318Z,15.80
2023-04-15T06:31:26.845Z,14.45
2023-04-15T06:33:53.776Z,13.68
2023-04-15T06:36:21.132Z,14.57
2023-04-15T06:38:47.958Z,13.65
2023-04-15T06:41:14.820Z,13.35
2023-04-15T06:43:41.697Z,13.27
2023-04-15T06:46:08.634Z,13.43
2023-04-15T06:48:37.554Z,13.35
2023-04-15T06:51:04.630Z,13.52
2023-04-15T06:53:31.523Z,13.98
2023-04-15T06:55:58.411Z,13.02
2023-04-15T06:58:25.478Z,12.63
2023-04-15T07:00:53.134Z,13.10
2023-04-15T07:03:20.070Z,12.85
2023-04-15T07:05:47.111Z,11.95
2023-04-15T07:08:14.095Z,10.20
2023-04-15T07:10:41.486Z,11.52
2023-04-15T07:13:08.920Z,12.15
2023-04-15T07:15:35.994Z,10.30
2023-04-15T07:18:02.976Z,12.15
2023-04-15T07:20:30.007Z,10.98
2023-04-15T07:22:57.541Z,11.18
2023-04-15T07:25:24.504Z,10.25
2023-04-15T07:27:51.805Z,10.30
2023-04-15T07:30:18.711Z,9.68
2023-04-15T07:32:45.824Z,9.07
2023-04-15T07:35:13.542Z,8.32
2023-04-15T07:37:40.387Z,7.80
2023-04-15T07:40:08.976Z,7.32
2023-04-15T07:42:36.648Z,7.88
2023-04-15T07:45:03.727Z,7.35
2023-04-15T07:47:30.681Z,6.45
2023-04-15T07:49:57.762Z,8.02
2023-04-15T07:52:24.626Z,6.60
2023-04-15T07:54:51.634Z,6.55
2023-04-15T07:57:18.610Z,6.22
2023-04-15T07:59:45.569Z,6.43
2023-04-15T08:02:12.543Z,6.60
2023-04-15T08:04:39.609Z,5.88
2023-04-15T08:07:07.135Z,6.45
2023-04-15T08:09:34.040Z,6.32
2023-04-15T08:12:01.022Z,6.35
2023-04-15T08:14:27.885Z,6.65
2023-04-15T08:16:54.709Z,6.22
2023-04-15T08:19:21.595Z,5.78
2023-04-15T08:21:48.410Z,6.15
2023-04-15T08:24:15.728Z,6.57
2023-04-15T08:26:42.737Z,6.22
2023-04-15T08:29:09.542Z,5.47
2023-04-15T08:31:36.554Z,5.68
2023-04-15T08:34:03.788Z,5.70
2023-04-15T08:36:32.256Z,4.10
2023-04-15T08:39:01.459Z,4.35
2023-04-15T08:41:40.387Z,4.13
2023-04-15T08:44:07.580Z,3.75
2023-04-15T08:46:37.353Z,4.13
2023-04-15T08:49:05.408Z,3.88
2023-04-15T08:51:33.697Z,4.07
2023-04-15T08:54:01.550Z,4.13
2023-04-15T08:56:30.006Z,3.65
2023-04-15T08:58:57.830Z,4.32
2023-04-15T09:01:25.576Z,4.00
2023-04-15T09:03:56.414Z,4.20
2023-04-15T09:06:24.128Z,3.90
2023-04-15T09:08:51.962Z,4.00
2023-04-15T09:11:20.329Z,4.00
2023-04-15T09:13:47.324Z,4.10
2023-04-15T09:16:14.781Z,4.05
2023-04-15T09:18:41.996Z,3.65
2023-04-15T09:21:12.713Z,3.58
2023-04-15T09:23:41.216Z,3.40
2023-04-15T09:26:08.383Z,3.28
2023-04-15T09:28:42.600Z,3.72
2023-04-15T09:31:10.597Z,3.15
2023-04-15T09:33:56.527Z,4.05
2023-04-15T09:36:25.036Z,3.70
2023-04-15T09:38:59.697Z,3.55
2023-04-15T09:41:27.231Z,3.88
2023-04-15T09:43:54.125Z,3.55
2023-04-15T09:46:21.065Z,2.80
2023-04-15T09:49:07.006Z,2.85
2023-04-15T09:51:35.882Z,3.00
2023-04-15T09:54:03.676Z,3.70
2023-04-15T09:56:41.637Z,2.55
2023-04-15T09:59:09.469Z,3.33
2023-04-15T10:01:36.799Z,2.95
2023-04-15T10:04:05.072Z,2.92
2023-04-15T10:06:32.821Z,2.67
2023-04-15T10:09:00.732Z,2.55
2023-04-15T10:11:33.589Z,2.40
2023-04-15T10:14:01.162Z,2.65
2023-04-15T10:16:28.984Z,3.03
2023-04-15T10:18:57.146Z,2.47
2023-04-15T10:21:24.678Z,6.28
2023-04-15T10:23:52.189Z,25.50
2023-04-15T10:26:19.310Z,4.25
2023-04-15T10:28:50.124Z,3.45
2023-04-15T10:31:18.533Z,2.42
2023-04-15T10:33:47.777Z,2.70
2023-04-15T10:36:16.089Z,3.08
2023-04-15T10:38:46.840Z,2.97
2023-04-15T10:41:24.225Z,2.15
2023-04-15T10:43:55.319Z,1.98
2023-04-15T10:46:43.450Z,2.30
2023-04-15T10:49:24.279Z,2.00
2023-04-15T10:51:58.858Z,2.28
2023-04-15T10:54:25.808Z,2.70
2023-04-15T10:57:09.348Z,2.15
2023-04-15T10:59:37.922Z,2.40
2023-04-15T11:02:07.666Z,2.83
2023-04-15T11:04:54.040Z,2.10
2023-04-15T11:07:42.304Z,2.42
2023-04-15T11:10:17.826Z,2.47
2023-04-15T11:12:51.982Z,2.30
2023-04-15T11:15:35.190Z,2.85
2023-04-15T11:18:22.237Z,2.55
2023-04-15T11:20:50.816Z,2.42
2023-04-15T11:23:33.462Z,2.47
2023-04-15T11:26:02.616Z,1.95
2023-04-15T11:28:31.283Z,2.00
2023-04-15T11:30:58.877Z,1.70
2023-04-15T11:33:26.004Z,2.05
2023-04-15T11:35:56.988Z,2.92
2023-04-15T11:38:23.826Z,1.65
2023-04-15T11:40:52.428Z,2.72
2023-04-15T11:43:21.244Z,2.30
2023-04-15T11:46:00.943Z,2.20
2023-04-15T11:48:33.238Z,1.83
2023-04-15T11:51:01.247Z,2.37
2023-04-15T11:53:44.592Z,2.25
2023-04-15T11:56:19.378Z,1.85
2023-04-15T11:58:46.975Z,1.95
2023-04-15T12:01:14.170Z,1.80
2023-04-15T12:03:43.967Z,2.35
2023-04-15T12:06:24.772Z,1.95
2023-04-15T12:09:17.841Z,2.00
2023-04-15T12:11:47.572Z,1.92
2023-04-15T12:14:34.663Z,1.67
2023-04-15T12:17:06.568Z,2.00
2023-04-15T12:19:38.746Z,2.30
2023-04-15T12:22:08.650Z,1.63
2023-04-15T12:24:36.729Z,2.33
2023-04-15T12:27:06.148Z,2.55
2023-04-15T12:29:34.545Z,2.28
2023-04-15T12:32:08.280Z,2.40
2023-04-15T12:34:50.337Z,2.63
2023-04-15T12:37:17.729Z,1.90
2023-04-15T12:39:48.089Z,1.60
2023-04-15T12:42:16.458Z,1.60
2023-04-15T12:44:43.353Z,3.10
2023-04-15T12:47:11.676Z,2.20
2023-04-15T12:49:39.537Z,1.85
2023-04-15T12:52:07.129Z,1.67
2023-04-15T12:54:34.755Z,1.73
2023-04-15T12:57:05.939Z,1.85
2023-04-15T12:59:33.030Z,1.80
2023-04-15T13:02:01.231Z,2.38
2023-04-15T13:04:30.790Z,2.20
2023-04-15T13:06:58.096Z,2.40
2023-04-15T13:09:25.115Z,1.90
2023-04-15T13:11:52.771Z,1.75
2023-04-15T13:14:19.865Z,1.70
2023-04-15T13:16:47.227Z,1.73
2023-04-15T13:19:14.310Z,2.47
2023-04-15T13:21:41.430Z,1.77
2023-04-15T13:24:09.382Z,2.42
2023-04-15T13:26:36.467Z,1.90
2023-04-15T13:29:03.264Z,2.35
2023-04-15T13:31:30.082Z,2.05
2023-04-15T13:33:57.699Z,2.40
2023-04-15T13:36:24.620Z,2.55
2023-04-15T13:38:51.940Z,2.35
2023-04-15T13:41:20.011Z,2.20
2023-04-15T13:43:47.293Z,1.58
2023-04-15T13:46:14.726Z,1.77
2023-04-15T13:48:41.863Z,2.20
2023-04-15T13:51:08.803Z,1.92
2023-04-15T13:53:38.493Z,2.22
2023-04-15T13:56:10.617Z,1.83
2023-04-15T13:58:38.481Z,2.00
2023-04-15T14:01:07.060Z,2.22
2023-04-15T14:03:37.972Z,2.28
2023-04-15T14:06:06.219Z,2.95
2023-04-15T14:08:33.467Z,2.38
2023-04-15T14:11:00.601Z,2.28
2023-04-15T14:13:27.487Z,1.92
2023-04-15T14:15:54.418Z,2.55
2023-04-15T14:18:21.261Z,2.22
2023-04-15T14:20:48.226Z,2.50
2023-04-15T14:23:15.067Z,2.60
2023-04-15T14:25:42.295Z,2.70
2023-04-15T14:28:09.160Z,3.08
2023-04-15T14:30:36.238Z,2.80
2023-04-15T14:33:03.859Z,3.20
2023-04-15T14:35:31.172Z,3.45
2023-04-15T14:37:58.044Z,2.38
2023-04-15T14:40:25.061Z,3.22
2023-04-15T14:42:52.058Z,3.20
2023-04-15T14:45:19.348Z,3.30
2023-04-15T14:47:46.954Z,2.75
2023-04-15T14:50:13.804Z,2.92
2023-04-15T14:52:40.811Z,2.80
2023-04-15T14:55:10.355Z,3.05
2023-04-15T14:57:41.540Z,3.33
2023-04-15T15:00:10.532Z,3.67
2023-04-15T15:02:40.534Z,3.30
2023-04-15T15:05:08.629Z,4.40
2023-04-15T15:07:39.387Z,3.70
2023-04-15T15:10:07.163Z,3.33
2023-04-15T15:12:34.368Z,4.40
2023-04-15T15:15:04.981Z,3.10
2023-04-15T15:17:36.805Z,4.10
2023-04-15T15:20:04.152Z,4.43
2023-04-15T15:22:31.226Z,4.25
2023-04-15T15:24:59.200Z,5.18
2023-04-15T15:27:26.329Z,4.50
2023-04-15T15:29:53.152Z,4.45
2023-04-15T15:32:20.123Z,5.25
2023-04-15T15:34:46.971Z,3.78
2023-04-15T15:37:13.822Z,4.80
2023-04-15T15:39:41.097Z,5.40
2023-04-15T15:42:08.031Z,5.60
2023-04-15T15:44:36.321Z,4.57
2023-04-15T15:47:03.419Z,4.60
2023-04-15T15:49:30.744Z,5.53
2023-04-15T15:51:57.632Z,7.43
2023-04-15T15:54:25.281Z,4.57
2023-04-15T15:56:52.207Z,5.20
2023-04-15T15:59:19.021Z,4.70
2023-04-15T16:01:46.253Z,4.70
2023-04-15T16:04:13.509Z,5.50
2023-04-15T16:06:40.743Z,5.45
2023-04-15T16:09:07.571Z,5.75
2023-04-15T16:11:34.415Z,5.65
2023-04-15T16:14:01.598Z,6.10
2023-04-15T16:16:29.985Z,6.28
2023-04-15T16:18:59.875Z,6.45
2023-04-15T16:21:27.364Z,6.20
2023-04-15T16:23:54.376Z,6.07
2023-04-15T16:26:21.798Z,5.88
2023-04-15T16:28:48.616Z,6.88
2023-04-15T16:31:15.805Z,5.80
2023-04-15T16:33:42.614Z,6.72
2023-04-15T16:36:09.442Z,7.75
2023-04-15T16:38:36.478Z,6.57
2023-04-15T16:41:03.429Z,7.20
2023-04-15T16:43:30.344Z,7.50
2023-04-15T16:45:57.563Z,7.72
2023-04-15T16:48:24.577Z,7.13
2023-04-15T16:50:51.457Z,8.13
2023-04-15T16:53:18.386Z,8.70
2023-04-15T16:55:45.218Z,8.05
2023-04-15T16:58:12.031Z,8.52
2023-04-15T17:00:38.920Z,7.68
2023-04-15T17:03:06.253Z,6.88
2023-04-15T17:05:33.905Z,6.38
2023-04-15T17:08:01.088Z,8.85
2023-04-15T17:10:28.432Z,7.53
2023-04-15T17:12:59.249Z,9.43
2023-04-15T17:15:27.197Z,8.15
2023-04-15T17:17:54.375Z,7.35
2023-04-15T17:20:21.690Z,8.18
2023-04-15T17:22:49.277Z,8.45
2023-04-15T17:25:16.249Z,8.02
2023-04-15T17:27:43.145Z,8.07
2023-04-15T17:30:10.748Z,9.85
2023-04-15T17:32:39.456Z,10.13
2023-04-15T17:35:06.947Z,8.82
2023-04-15T17:37:34.312Z,9.70
2023-04-15T17:40:01.384Z,9.15
2023-04-15T17:42:28.186Z,9.63
2023-04-15T17:44:55.030Z,10.27
2023-04-15T17:47:21.969Z,10.65
2023-04-15T17:49:48.848Z,9.70
2023-04-15T17:52:15.680Z,11.32
2023-04-15T17:54:42.595Z,10.02
2023-04-15T17:57:09.877Z,10.73
2023-04-15T17:59:37.087Z,10.68
2023-04-15T18:02:04.024Z,11.00
2023-04-15T18:04:31.115Z,10.55
2023-04-15T18:06:58.102Z,10.07
2023-04-15T18:09:25.007Z,9.90
2023-04-15T18:11:51.846Z,10.02
2023-04-15T18:14:31.108Z,10.50
2023-04-15T18:17:01.365Z,10.60
2023-04-15T18:19:28.734Z,10.75
2023-04-15T18:21:55.566Z,11.95
2023-04-15T18:24:22.755Z,11.38
2023-04-15T18:26:49.606Z,10.93
2023-04-15T18:29:16.642Z,9.65
2023-04-15T18:31:43.940Z,11.60
2023-04-15T18:34:10.950Z,12.43
2023-04-15T18:36:37.931Z,10.93
2023-04-15T18:39:05.169Z,11.30
2023-04-15T18:41:32.262Z,11.30
2023-04-15T18:43:59.312Z,10.05
2023-04-15T18:46:26.315Z,10.88
2023-04-15T18:48:53.188Z,12.50
2023-04-15T18:51:20.451Z,11.05
2023-04-15T18:53:47.621Z,10.73
2023-04-15T18:56:14.506Z,11.82
2023-04-15T18:59:18.922Z,12.50
2023-04-15T19:01:29.839Z,11.85
2023-04-15T19:03:56.721Z,13.38
2023-04-15T19:06:23.682Z,12.05
2023-04-15T19:08:51.772Z,13.95
2023-04-15T19:11:18.602Z,13.13
2023-04-15T19:13:45.657Z,13.02
2023-04-15T19:16:13.002Z,12.70
2023-04-15T19:18:39.901Z,13.63
2023-04-15T19:21:06.725Z,14.57
2023-04-15T19:23:33.618Z,13.88
2023-04-15T19:26:00.574Z,14.02
2023-04-15T19:28:28.354Z,14.30
2023-04-15T19:30:55.608Z,14.63
2023-04-15T19:33:22.788Z,13.82
2023-04-15T19:35:52.273Z,15.82
2023-04-15T19:38:19.129Z,15.50
2023-04-15T19:40:45.977Z,15.13
2023-04-15T19:43:13.210Z,15.05
2023-04-15T19:45:40.050Z,14.65
2023-04-15T19:48:07.409Z,15.55
2023-04-15T19:50:34.435Z,14.73
2023-04-15T19:53:01.345Z,15.48
2023-04-15T19:55:28.182Z,15.45
2023-04-15T19:57:55.051Z,15.90
2023-04-15T20:00:22.056Z,16.05
2023-04-15T20:02:48.982Z,16.98
2023-04-15T20:05:16.110Z,15.77
2023-04-15T20:07:45.298Z,15.63
2023-04-15T20:10:13.253Z,16.00
2023-04-15T20:12:49.894Z,16.48
2023-04-15T20:15:19.689Z,17.52
2023-04-15T20:17:46.637Z,16.38
2023-04-15T20:20:13.583Z,17.55
2023-04-15T20:22:41.116Z,17.45
2023-04-15T20:25:08.993Z,17.38
2023-04-15T20:27:35.954Z,17.92
2023-04-15T20:30:04.980Z,18.67
2023-04-15T20:32:36.229Z,17.83
2023-04-15T20:35:04.863Z,19.33
2023-04-15T20:37:33.540Z,17.63
2023-04-15T20:40:01.651Z,19.75
2023-04-15T20:42:33.606Z,20.65
2023-04-15T20:45:01.203Z,19.73
2023-04-15T20:47:28.252Z,21.63
2023-04-15T20:49:55.409Z,21.67
2023-04-15T20:52:22.299Z,21.30
2023-04-15T20:54:50.328Z,22.42
2023-04-15T20:57:17.381Z,22.48
2023-04-15T20:59:44.276Z,22.92
2023-04-15T21:02:12.109Z,24.23
2023-04-15T21:04:39.133Z,23.65
2023-04-15T21:07:06.082Z,23.02
2023-04-15T21:09:32.981Z,23.25
2023-04-15T21:12:01.964Z,23.55
2023-04-15T21:14:29.558Z,25.63
2023-04-15T21:16:59.705Z,26.05
2023-04-15T21:19:26.624Z,25.27
2023-04-15T21:21:53.421Z,25.48
2023-04-15T21:24:20.274Z,24.60
2023-04-15T21:26:47.422Z,26.15
2023-04-15T21:29:14.802Z,28.70
2023-04-15T21:31:42.108Z,25.73
2023-04-15T21:34:09.928Z,27.17
2023-04-15T21:36:38.079Z,28.48
2023-04-15T21:39:05.805Z,27.85
2023-04-15T21:41:32.940Z,31.55
2023-04-15T21:43:59.855Z,30.50
2023-04-15T21:46:32.667Z,31.13
2023-04-15T21:51:27.677Z,30.85
2023-04-15T21:53:54.669Z,29.23
2023-04-15T21:56:23.255Z,29.80
2023-04-15T21:58:50.306Z,30.85
2023-04-15T22:01:17.748Z,32.60
2023-04-15T22:03:44.912Z,32.65
2023-04-15T22:58:54.806Z,39.88
2023-04-15T23:01:21.852Z,44.30
2023-04-15T23:03:57.530Z,42.33
2023-04-15T23:06:36.703Z,40.75
2023-04-15T23:09:03.910Z,44.05
2023-04-15T23:11:30.861Z,40.40
2023-04-15T23:13:57.705Z,40.58
2023-04-15T23:16:24.557Z,44.03
2023-04-15T23:18:51.420Z,39.83
2023-04-15T23:21:18.260Z,39.10
2023-04-15T23:23:45.117Z,43.53
2023-04-15T23:26:11.965Z,43.55
2023-04-15T23:28:38.782Z,42.00
2023-04-15T23:31:06.796Z,41.15
2023-04-15T23:33:33.610Z,42.33
2023-04-15T23:36:00.491Z,42.35
2023-04-15T23:38:27.287Z,42.58
2023-04-15T23:40:54.100Z,41.30
2023-04-15T23:43:20.953Z,42.85
2023-04-15T23:45:47.921Z,41.20
2023-04-15T23:48:14.958Z,42.45
2023-04-15T23:50:41.813Z,42.38
2023-04-15T23:53:08.601Z,41.53
2023-04-15T23:55:35.432Z,41.67
2023-04-15T23:58:02.362Z,44.20
